Time;durP1;ratioP1;P1;durP2;ratioP2;P2;SDS_P1;SDS_P2;PMS_P1;PMS_P2;Temp;Humidity;BMP_temperature;BMP_pressure;BME280_temperature;BME280_humidity;BME280_pressure;Samples;Min_cycle;Max_cycle;Signal;HPM_P1;HPM_P2
2021/04/26 00:01:58;;;;;;;13.13;8.33;;;;;;;;;;5071301;28;20257;-56
2021/04/26 00:04:24;;;;;;;18.27;8.67;;;;;;;;;;5071394;28;20911;-56
2021/04/26 00:06:50;;;;;;;17.67;8.80;;;;;;;;;;5071334;28;20821;-54
2021/04/26 00:09:16;;;;;;;16.80;8.73;;;;;;;;;;5071047;28;20826;-56
2021/04/26 00:11:42;;;;;;;19.30;10.00;;;;;;;;;;5071236;28;20426;-55
2021/04/26 00:14:08;;;;;;;17.75;10.70;;;;;;;;;;5071397;28;20405;-55
2021/04/26 00:16:35;;;;;;;23.33;10.95;;;;;;;;;;5071075;28;20241;-56
2021/04/26 00:19:01;;;;;;;22.25;11.95;;;;;;;;;;5070798;28;20186;-54
2021/04/26 00:21:27;;;;;;;28.58;13.80;;;;;;;;;;5071139;28;20172;-54
2021/04/26 00:23:53;;;;;;;30.83;13.10;;;;;;;;;;5070462;28;20287;-54
2021/04/26 00:26:19;;;;;;;30.20;12.77;;;;;;;;;;5071151;28;20246;-54
2021/04/26 00:28:45;;;;;;;23.87;12.37;;;;;;;;;;5070885;28;21190;-55
2021/04/26 00:31:11;;;;;;;25.63;13.50;;;;;;;;;;5071027;28;20403;-55
2021/04/26 00:33:37;;;;;;;30.27;12.27;;;;;;;;;;5071208;28;20518;-55
2021/04/26 00:36:03;;;;;;;25.77;11.25;;;;;;;;;;5071086;28;20454;-54
2021/04/26 00:38:29;;;;;;;24.33;10.98;;;;;;;;;;5071066;28;20201;-55
2021/04/26 00:40:55;;;;;;;27.93;12.70;;;;;;;;;;5052738;28;20825;-55
2021/04/26 00:43:21;;;;;;;27.57;11.43;;;;;;;;;;5071222;28;20451;-55
2021/04/26 00:45:47;;;;;;;25.30;15.40;;;;;;;;;;5071008;28;20400;-54
2021/04/26 00:48:13;;;;;;;23.17;12.03;;;;;;;;;;5070912;28;20510;-55
2021/04/26 00:50:40;;;;;;;27.63;13.60;;;;;;;;;;5070747;28;20402;-55
2021/04/26 00:53:06;;;;;;;19.05;12.13;;;;;;;;;;5070856;28;20184;-54
2021/04/26 00:55:33;;;;;;;26.55;12.05;;;;;;;;;;5070980;28;20219;-54
2021/04/26 00:58:00;;;;;;;17.50;11.05;;;;;;;;;;5070840;28;20655;-54
2021/04/26 01:00:26;;;;;;;17.25;12.25;;;;;;;;;;5070693;28;20168;-54
2021/04/26 01:02:52;;;;;;;23.42;13.38;;;;;;;;;;5069719;28;20204;-54
2021/04/26 01:05:19;;;;;;;19.93;14.00;;;;;;;;;;5070228;28;20169;-55
2021/04/26 01:07:46;;;;;;;32.13;18.02;;;;;;;;;;5070438;28;20428;-54
2021/04/26 01:10:13;;;;;;;33.75;20.05;;;;;;;;;;5070591;28;20699;-55
2021/04/26 01:12:42;;;;;;;21.17;14.00;;;;;;;;;;5070412;28;20424;-55
2021/04/26 01:15:47;;;;;;;21.85;13.55;;;;;;;;;;5070487;28;20185;-54
2021/04/26 01:18:17;;;;;;;14.68;10.55;;;;;;;;;;5008188;28;20214;-55
2021/04/26 01:20:58;;;;;;;18.70;9.70;;;;;;;;;;5008279;28;20179;-54
2021/04/26 01:23:39;;;;;;;12.15;9.15;;;;;;;;;;5045304;28;20313;-55
2021/04/26 01:26:05;;;;;;;17.17;10.05;;;;;;;;;;5070460;28;20169;-55
2021/04/26 01:28:52;;;;;;;20.23;8.52;;;;;;;;;;5070376;28;20194;-56
2021/04/26 01:31:27;;;;;;;11.93;9.00;;;;;;;;;;5039116;28;20255;-54
2021/04/26 01:33:55;;;;;;;15.23;9.35;;;;;;;;;;5070502;28;20226;-55
2021/04/26 01:36:23;;;;;;;10.43;9.20;;;;;;;;;;5072811;28;20183;-55
2021/04/26 01:38:49;;;;;;;13.07;9.63;;;;;;;;;;5073919;28;20218;-54
2021/04/26 01:41:16;;;;;;;13.95;9.00;;;;;;;;;;5074420;28;20178;-54
2021/04/26 01:43:43;;;;;;;15.80;9.75;;;;;;;;;;5074343;28;20196;-55
2021/04/26 01:46:10;;;;;;;16.77;8.70;;;;;;;;;;5074431;28;20195;-54
2021/04/26 01:48:39;;;;;;;12.27;9.15;;;;;;;;;;5073958;28;20218;-54
2021/04/26 01:51:06;;;;;;;16.08;9.65;;;;;;;;;;5074075;28;20539;-55
2021/04/26 01:53:32;;;;;;;15.18;10.07;;;;;;;;;;5073876;28;20655;-55
2021/04/26 01:55:59;;;;;;;11.55;8.95;;;;;;;;;;5073903;28;20221;-55
2021/04/26 01:58:26;;;;;;;16.23;9.40;;;;;;;;;;5073805;28;20204;-55
2021/04/26 02:00:52;;;;;;;18.30;10.63;;;;;;;;;;5073599;28;20643;-55
2021/04/26 02:03:21;;;;;;;14.32;9.07;;;;;;;;;;5073546;28;20578;-55
2021/04/26 02:05:48;;;;;;;12.80;9.45;;;;;;;;;;5073713;28;20167;-55
2021/04/26 02:08:14;;;;;;;12.90;9.15;;;;;;;;;;5073347;28;20193;-54
2021/04/26 02:10:40;;;;;;;21.05;8.93;;;;;;;;;;5073299;28;20301;-55
2021/04/26 02:13:07;;;;;;;13.43;10.07;;;;;;;;;;5073354;28;20612;-55
2021/04/26 02:15:33;;;;;;;14.68;10.48;;;;;;;;;;5073380;28;20194;-55
2021/04/26 02:18:00;;;;;;;10.75;8.90;;;;;;;;;;5073163;28;20193;-55
2021/04/26 02:20:26;;;;;;;11.13;8.88;;;;;;;;;;5072987;28;20691;-55
2021/04/26 02:22:53;;;;;;;17.73;10.15;;;;;;;;;;5073067;28;20567;-54
2021/04/26 02:25:19;;;;;;;17.48;9.65;;;;;;;;;;5073214;28;20171;-54
2021/04/26 02:27:46;;;;;;;23.42;10.57;;;;;;;;;;5072796;28;20180;-55
2021/04/26 02:30:12;;;;;;;12.52;9.30;;;;;;;;;;5072902;28;20159;-55
2021/04/26 02:32:38;;;;;;;10.80;9.35;;;;;;;;;;5072951;28;20254;-55
2021/04/26 02:35:05;;;;;;;16.10;9.27;;;;;;;;;;5072984;28;20209;-55
2021/04/26 02:37:33;;;;;;;11.95;9.48;;;;;;;;;;5072730;28;20432;-55
2021/04/26 02:40:03;;;;;;;13.45;9.82;;;;;;;;;;5072725;28;20237;-55
2021/04/26 02:42:30;;;;;;;15.35;9.43;;;;;;;;;;5072642;28;20244;-55
2021/04/26 02:44:56;;;;;;;11.20;9.88;;;;;;;;;;5072872;28;20202;-54
2021/04/26 02:47:23;;;;;;;13.30;9.80;;;;;;;;;;5072070;28;20196;-54
2021/04/26 02:49:49;;;;;;;12.27;10.93;;;;;;;;;;5072543;28;20673;-54
2021/04/26 02:52:16;;;;;;;16.95;10.32;;;;;;;;;;5072565;28;20216;-54
2021/04/26 02:54:43;;;;;;;15.15;9.93;;;;;;;;;;5072864;28;20512;-55
2021/04/26 02:57:09;;;;;;;14.55;9.80;;;;;;;;;;5072402;28;20216;-54
2021/04/26 02:59:37;;;;;;;18.90;10.73;;;;;;;;;;5072180;28;20170;-54
2021/04/26 03:02:03;;;;;;;17.23;10.52;;;;;;;;;;5072469;28;20159;-54
2021/04/26 03:04:30;;;;;;;14.80;10.80;;;;;;;;;;5072240;28;20268;-55
2021/04/26 03:06:57;;;;;;;20.85;9.98;;;;;;;;;;5072238;28;20174;-55
2021/04/26 03:09:23;;;;;;;23.77;10.00;;;;;;;;;;5071930;28;20169;-54
2021/04/26 03:11:51;;;;;;;15.55;8.70;;;;;;;;;;5072218;28;20201;-55
2021/04/26 03:14:18;;;;;;;13.00;9.82;;;;;;;;;;5072089;28;20198;-54
2021/04/26 03:16:44;;;;;;;19.23;10.00;;;;;;;;;;5072102;28;20599;-55
2021/04/26 03:19:10;;;;;;;16.40;9.60;;;;;;;;;;5071745;28;20280;-54
2021/04/26 03:21:36;;;;;;;20.07;10.57;;;;;;;;;;5072112;28;20405;-54
2021/04/26 03:24:03;;;;;;;12.60;9.55;;;;;;;;;;5071762;28;20928;-55
2021/04/26 03:26:31;;;;;;;13.50;8.63;;;;;;;;;;5071887;28;20241;-54
2021/04/26 03:28:58;;;;;;;22.15;9.93;;;;;;;;;;5071483;28;20842;-54
2021/04/26 03:31:24;;;;;;;17.45;9.00;;;;;;;;;;5071917;28;20644;-55
2021/04/26 03:33:50;;;;;;;14.13;10.63;;;;;;;;;;5071764;28;20194;-55
2021/04/26 03:36:16;;;;;;;20.90;9.70;;;;;;;;;;5071879;28;20174;-54
2021/04/26 03:38:43;;;;;;;16.98;9.85;;;;;;;;;;5071854;28;20441;-55
2021/04/26 03:41:09;;;;;;;14.32;9.80;;;;;;;;;;5072229;28;20583;-55
2021/04/26 03:43:35;;;;;;;13.05;8.75;;;;;;;;;;5071524;28;20194;-55
2021/04/26 03:46:01;;;;;;;14.43;9.07;;;;;;;;;;5071818;28;20198;-55
2021/04/26 03:48:27;;;;;;;12.98;8.73;;;;;;;;;;5071480;28;20593;-55
2021/04/26 03:50:53;;;;;;;15.20;10.20;;;;;;;;;;5071351;28;20162;-55
2021/04/26 03:53:19;;;;;;;18.90;10.17;;;;;;;;;;5071259;28;20435;-55
2021/04/26 03:55:45;;;;;;;12.57;9.85;;;;;;;;;;5071406;28;20485;-54
2021/04/26 03:58:11;;;;;;;10.23;9.15;;;;;;;;;;5071197;28;20225;-55
2021/04/26 04:00:37;;;;;;;14.23;10.03;;;;;;;;;;5070352;28;20607;-55
2021/04/26 04:03:04;;;;;;;15.77;9.87;;;;;;;;;;5071198;28;20505;-55
2021/04/26 04:05:30;;;;;;;14.40;9.18;;;;;;;;;;5071176;28;20772;-54
2021/04/26 04:07:56;;;;;;;15.40;10.70;;;;;;;;;;5071098;28;20212;-54
2021/04/26 04:10:22;;;;;;;12.73;9.97;;;;;;;;;;5070848;28;20658;-55
2021/04/26 04:12:48;;;;;;;12.87;9.27;;;;;;;;;;5071170;28;20415;-54
2021/04/26 04:15:14;;;;;;;14.07;10.90;;;;;;;;;;5071289;28;20400;-55
2021/04/26 04:17:40;;;;;;;15.50;10.85;;;;;;;;;;5070912;28;20416;-55
2021/04/26 04:20:07;;;;;;;16.63;9.83;;;;;;;;;;5070743;28;20185;-54
2021/04/26 04:22:33;;;;;;;17.55;10.43;;;;;;;;;;5070796;28;20440;-54
2021/04/26 04:24:59;;;;;;;19.20;11.13;;;;;;;;;;5070856;28;20181;-54
2021/04/26 04:27:25;;;;;;;15.87;10.50;;;;;;;;;;5070916;28;20417;-55
2021/04/26 04:29:51;;;;;;;21.13;11.00;;;;;;;;;;5070518;28;20907;-55
2021/04/26 04:32:17;;;;;;;17.07;10.67;;;;;;;;;;5070864;28;20888;-55
2021/04/26 04:34:43;;;;;;;15.87;11.50;;;;;;;;;;5070857;28;20396;-55
2021/04/26 04:37:09;;;;;;;18.23;10.70;;;;;;;;;;5070606;28;20963;-54
2021/04/26 04:39:35;;;;;;;20.47;11.40;;;;;;;;;;5070362;28;20779;-55
2021/04/26 04:42:01;;;;;;;20.40;10.87;;;;;;;;;;5070695;28;20408;-55
2021/04/26 04:44:27;;;;;;;22.30;11.55;;;;;;;;;;5070665;28;20488;-55
2021/04/26 04:46:52;;;;;;;20.37;10.27;;;;;;;;;;5070726;28;20200;-55
2021/04/26 04:49:18;;;;;;;13.90;10.87;;;;;;;;;;5070347;28;20896;-54
2021/04/26 04:51:45;;;;;;;24.53;10.97;;;;;;;;;;5070599;28;20824;-54
2021/04/26 04:54:11;;;;;;;13.80;10.25;;;;;;;;;;5070604;28;20396;-55
2021/04/26 04:56:38;;;;;;;17.67;10.07;;;;;;;;;;5070635;28;20181;-55
2021/04/26 04:59:04;;;;;;;17.27;10.45;;;;;;;;;;5070279;28;20278;-54
2021/04/26 05:01:30;;;;;;;17.80;9.50;;;;;;;;;;5070489;28;20203;-55
2021/04/26 05:03:56;;;;;;;18.30;10.07;;;;;;;;;;5070513;28;20466;-56
2021/04/26 05:06:22;;;;;;;15.73;10.27;;;;;;;;;;5070363;28;20963;-54
2021/04/26 05:08:49;;;;;;;14.37;8.77;;;;;;;;;;5070266;28;20928;-55
2021/04/26 05:11:15;;;;;;;17.63;9.95;;;;;;;;;;5072813;28;20411;-55
2021/04/26 05:13:41;;;;;;;17.83;9.60;;;;;;;;;;5074494;28;20174;-55
2021/04/26 05:16:07;;;;;;;14.90;9.37;;;;;;;;;;5074381;28;20402;-55
2021/04/26 05:18:33;;;;;;;14.83;9.30;;;;;;;;;;5074237;28;20786;-53
2021/04/26 05:20:59;;;;;;;14.70;9.95;;;;;;;;;;5074098;28;20400;-55
2021/04/26 05:23:25;;;;;;;10.82;8.38;;;;;;;;;;5074219;28;20204;-54
2021/04/26 05:25:51;;;;;;;14.35;10.05;;;;;;;;;;5074218;28;20163;-55
2021/04/26 05:28:17;;;;;;;16.65;11.07;;;;;;;;;;5074121;28;20196;-55
2021/04/26 05:30:43;;;;;;;15.85;9.70;;;;;;;;;;5073897;28;20163;-54
2021/04/26 05:33:09;;;;;;;13.73;10.00;;;;;;;;;;5074118;28;20237;-55
2021/04/26 05:35:35;;;;;;;13.60;10.23;;;;;;;;;;5073964;28;20166;-56
2021/04/26 05:38:14;;;;;;;13.23;9.27;;;;;;;;;;5073859;28;21024;-56
2021/04/26 05:40:40;;;;;;;18.83;9.80;;;;;;;;;;5073915;28;20401;-55
2021/04/26 05:43:09;;;;;;;18.42;10.13;;;;;;;;;;5074239;28;20199;-55
2021/04/26 05:45:36;;;;;;;18.02;10.20;;;;;;;;;;5073939;28;20377;-55
2021/04/26 05:48:02;;;;;;;21.05;9.93;;;;;;;;;;5073695;28;20192;-56
2021/04/26 05:50:28;;;;;;;16.65;10.27;;;;;;;;;;5073495;28;20732;-55
2021/04/26 05:52:55;;;;;;;18.87;10.87;;;;;;;;;;5073755;28;20216;-54
2021/04/26 05:55:21;;;;;;;16.50;10.75;;;;;;;;;;5073714;28;20437;-54
2021/04/26 05:57:47;;;;;;;14.40;10.20;;;;;;;;;;5073673;28;20747;-54
2021/04/26 06:00:13;;;;;;;18.23;10.73;;;;;;;;;;5073395;28;20258;-54
2021/04/26 06:02:39;;;;;;;18.90;11.40;;;;;;;;;;5072668;28;20860;-55
2021/04/26 06:05:06;;;;;;;14.60;10.23;;;;;;;;;;5073178;28;20165;-54
2021/04/26 06:07:32;;;;;;;19.92;10.75;;;;;;;;;;5072633;28;20983;-55
2021/04/26 06:09:57;;;;;;;13.43;9.27;;;;;;;;;;5072705;28;20256;-54
2021/04/26 06:12:24;;;;;;;13.57;11.23;;;;;;;;;;5072717;28;20461;-54
2021/04/26 06:14:49;;;;;;;14.70;10.43;;;;;;;;;;5072901;28;20408;-55
2021/04/26 06:17:15;;;;;;;14.50;10.50;;;;;;;;;;5072547;28;20849;-54
2021/04/26 06:19:41;;;;;;;14.13;10.17;;;;;;;;;;5072304;28;20969;-55
2021/04/26 06:22:07;;;;;;;14.40;10.50;;;;;;;;;;5071678;28;20796;-56
2021/04/26 06:24:33;;;;;;;14.53;9.90;;;;;;;;;;5073054;28;20559;-54
2021/04/26 06:26:59;;;;;;;14.55;10.30;;;;;;;;;;5073025;28;20414;-54
2021/04/26 06:29:25;;;;;;;15.03;10.27;;;;;;;;;;5072711;28;20536;-54
2021/04/26 06:31:51;;;;;;;13.63;9.55;;;;;;;;;;5072973;28;20446;-55
2021/04/26 06:34:17;;;;;;;12.43;9.43;;;;;;;;;;5072935;28;20209;-55
2021/04/26 06:36:43;;;;;;;17.37;9.63;;;;;;;;;;5072902;28;20409;-56
2021/04/26 06:39:10;;;;;;;15.73;9.80;;;;;;;;;;5072334;28;20494;-55
2021/04/26 06:41:36;;;;;;;12.48;9.65;;;;;;;;;;5072758;28;20428;-55
2021/04/26 06:44:02;;;;;;;16.17;9.15;;;;;;;;;;5072512;28;20187;-54
2021/04/26 06:46:28;;;;;;;9.77;8.77;;;;;;;;;;5072737;28;20167;-55
2021/04/26 06:48:54;;;;;;;13.40;9.23;;;;;;;;;;5072309;28;20276;-55
2021/04/26 06:51:20;;;;;;;12.27;9.37;;;;;;;;;;5072553;28;20535;-54
2021/04/26 06:53:46;;;;;;;16.50;9.75;;;;;;;;;;5072456;28;20405;-55
2021/04/26 06:56:12;;;;;;;19.10;10.63;;;;;;;;;;5072561;28;20162;-55
2021/04/26 06:58:38;;;;;;;14.50;9.43;;;;;;;;;;5072058;28;20416;-55
2021/04/26 07:01:04;;;;;;;11.33;8.43;;;;;;;;;;5072309;28;20398;-55
2021/04/26 07:03:30;;;;;;;13.10;8.37;;;;;;;;;;5072181;28;20463;-54
2021/04/26 07:05:56;;;;;;;14.13;8.47;;;;;;;;;;5071911;28;20432;-56
2021/04/26 07:08:23;;;;;;;16.83;9.90;;;;;;;;;;5071907;28;20471;-55
2021/04/26 07:10:49;;;;;;;12.20;7.90;;;;;;;;;;5072042;28;20405;-55
2021/04/26 07:13:15;;;;;;;11.33;8.93;;;;;;;;;;5072121;28;20493;-56
2021/04/26 07:15:41;;;;;;;9.73;7.43;;;;;;;;;;5072251;28;20409;-56
2021/04/26 07:18:07;;;;;;;13.23;7.93;;;;;;;;;;5071946;28;20417;-56
2021/04/26 07:20:33;;;;;;;10.43;7.67;;;;;;;;;;5071870;28;20410;-56
2021/04/26 07:22:59;;;;;;;20.33;8.57;;;;;;;;;;5072023;28;20499;-56
2021/04/26 07:25:25;;;;;;;10.60;6.27;;;;;;;;;;5072383;28;20403;-55
2021/04/26 07:27:51;;;;;;;11.50;7.00;;;;;;;;;;5072226;28;20445;-56
2021/04/26 07:30:17;;;;;;;8.40;7.53;;;;;;;;;;5071920;28;20891;-55
2021/04/26 07:32:44;;;;;;;8.17;7.47;;;;;;;;;;5072111;28;20787;-55
2021/04/26 07:35:13;;;;;;;11.20;7.67;;;;;;;;;;5071774;28;20396;-56
2021/04/26 07:37:39;;;;;;;8.50;5.80;;;;;;;;;;5071760;28;20532;-56
2021/04/26 07:40:07;;;;;;;8.87;5.50;;;;;;;;;;5071487;28;20401;-56
2021/04/26 07:42:33;;;;;;;11.63;5.40;;;;;;;;;;5071600;28;20400;-57
2021/04/26 07:44:59;;;;;;;7.40;5.20;;;;;;;;;;5071633;28;20448;-57
2021/04/26 07:47:25;;;;;;;6.07;5.43;;;;;;;;;;5071490;28;20911;-57
2021/04/26 07:49:51;;;;;;;5.77;4.67;;;;;;;;;;5071181;28;20403;-57
2021/04/26 07:52:17;;;;;;;3.83;3.53;;;;;;;;;;5071511;28;20829;-57
2021/04/26 07:54:43;;;;;;;6.37;3.77;;;;;;;;;;5071381;28;20454;-58
2021/04/26 07:57:08;;;;;;;4.50;3.93;;;;;;;;;;5071226;28;20390;-57
2021/04/26 07:59:35;;;;;;;4.60;3.87;;;;;;;;;;5071190;28;20800;-57
2021/04/26 08:02:01;;;;;;;6.67;4.20;;;;;;;;;;5071315;28;20799;-57
2021/04/26 08:04:27;;;;;;;8.57;4.37;;;;;;;;;;5071048;28;20955;-57
2021/04/26 08:06:53;;;;;;;6.43;3.20;;;;;;;;;;5071269;28;20384;-57
2021/04/26 08:09:20;;;;;;;5.50;3.40;;;;;;;;;;5070949;28;20949;-57
2021/04/26 08:11:46;;;;;;;2.93;2.73;;;;;;;;;;5071085;28;20908;-56
2021/04/26 08:14:12;;;;;;;3.30;2.77;;;;;;;;;;5071167;28;20409;-57
2021/04/26 08:16:39;;;;;;;2.60;2.40;;;;;;;;;;5069797;28;20458;-58
2021/04/26 08:19:05;;;;;;;4.13;3.10;;;;;;;;;;5070550;28;20420;-56
2021/04/26 08:21:31;;;;;;;2.37;2.23;;;;;;;;;;5070871;28;20903;-56
2021/04/26 08:23:57;;;;;;;3.73;2.63;;;;;;;;;;5070874;28;20440;-57
2021/04/26 08:26:26;;;;;;;3.30;2.43;;;;;;;;;;5070888;28;20404;-58
2021/04/26 08:28:52;;;;;;;5.13;2.77;;;;;;;;;;5070558;28;20434;-57
2021/04/26 08:31:18;;;;;;;10.30;6.53;;;;;;;;;;5070806;28;20400;-58
2021/04/26 08:33:45;;;;;;;2.80;2.60;;;;;;;;;;5070734;28;20404;-58
2021/04/26 08:36:11;;;;;;;2.77;2.57;;;;;;;;;;5070829;28;20465;-57
2021/04/26 08:38:37;;;;;;;13.80;3.90;;;;;;;;;;5070386;28;20471;-57
2021/04/26 08:41:03;;;;;;;6.33;2.93;;;;;;;;;;5070580;28;20404;-57
2021/04/26 08:43:30;;;;;;;6.47;3.80;;;;;;;;;;5070785;28;20452;-58
2021/04/26 08:46:00;;;;;;;4.20;3.30;;;;;;;;;;5070144;28;20876;-56
2021/04/26 08:48:28;;;;;;;4.13;2.13;;;;;;;;;;5070625;28;20708;-57
2021/04/26 08:50:54;;;;;;;2.60;2.40;;;;;;;;;;5070444;28;20435;-57
2021/04/26 08:53:20;;;;;;;2.50;2.30;;;;;;;;;;5062997;28;20420;-58
2021/04/26 08:55:46;;;;;;;2.77;2.30;;;;;;;;;;5070655;28;20889;-58
2021/04/26 08:58:12;;;;;;;2.50;2.40;;;;;;;;;;5070332;28;20435;-58
2021/04/26 09:00:38;;;;;;;2.70;2.50;;;;;;;;;;5070219;28;20876;-58
2021/04/26 09:03:07;;;;;;;2.47;2.20;;;;;;;;;;5070245;28;20443;-58
2021/04/26 09:05:34;;;;;;;3.33;2.70;;;;;;;;;;5070594;28;20443;-56
2021/04/26 09:08:01;;;;;;;3.67;3.37;;;;;;;;;;5068983;28;20412;-57
2021/04/26 09:10:45;;;;;;;3.70;2.67;;;;;;;;;;5068294;28;20404;-56
2021/04/26 09:13:30;;;;;;;3.03;2.83;;;;;;;;;;5069862;28;20411;-56
2021/04/26 09:16:08;;;;;;;4.07;2.60;;;;;;;;;;5070530;28;20404;-57
2021/04/26 09:18:45;;;;;;;3.10;2.90;;;;;;;;;;5070227;28;20420;-56
2021/04/26 09:21:30;;;;;;;3.23;3.00;;;;;;;;;;5069407;28;20505;-55
2021/04/26 09:24:15;;;;;;;3.10;2.73;;;;;;;;;;5069653;28;20456;-56
2021/04/26 09:26:42;;;;;;;3.20;2.93;;;;;;;;;;5070304;28;20926;-58
2021/04/26 09:29:12;;;;;;;3.47;2.93;;;;;;;;;;5069984;28;20808;-56
2021/04/26 09:31:38;;;;;;;4.20;2.83;;;;;;;;;;5070303;28;20944;-57
2021/04/26 09:34:04;;;;;;;8.60;3.00;;;;;;;;;;5070071;28;20400;-57
2021/04/26 09:36:32;;;;;;;5.93;2.77;;;;;;;;;;5070121;28;20391;-57
2021/04/26 09:39:04;;;;;;;3.23;3.03;;;;;;;;;;5070125;28;20511;-56
2021/04/26 09:41:32;;;;;;;3.00;2.80;;;;;;;;;;5070280;28;20471;-57
2021/04/26 09:44:01;;;;;;;2.73;2.53;;;;;;;;;;5069993;28;20455;-57
2021/04/26 09:46:42;;;;;;;4.63;3.30;;;;;;;;;;5070030;28;20486;-57
2021/04/26 09:49:13;;;;;;;4.73;2.57;;;;;;;;;;5069721;28;20511;-57
2021/04/26 09:51:40;;;;;;;3.07;2.83;;;;;;;;;;5069833;28;20401;-57
2021/04/26 09:54:06;;;;;;;2.87;2.67;;;;;;;;;;5069934;28;20407;-57
2021/04/26 09:56:39;;;;;;;3.43;2.80;;;;;;;;;;5069873;28;20400;-56
2021/04/26 09:59:05;;;;;;;11.20;3.00;;;;;;;;;;5072934;28;20413;-57
2021/04/26 10:01:31;;;;;;;3.10;2.90;;;;;;;;;;5073542;28;20403;-57
2021/04/26 10:03:58;;;;;;;3.90;3.60;;;;;;;;;;5073123;28;20471;-57
2021/04/26 10:06:25;;;;;;;2.97;2.77;;;;;;;;;;5073283;28;20404;-57
2021/04/26 10:08:52;;;;;;;3.40;3.10;;;;;;;;;;5072902;28;20416;-58
2021/04/26 10:11:19;;;;;;;3.93;3.60;;;;;;;;;;5073062;28;20409;-57
2021/04/26 10:13:46;;;;;;;6.10;3.20;;;;;;;;;;5073246;28;20827;-56
2021/04/26 10:16:14;;;;;;;3.60;3.30;;;;;;;;;;5073205;28;20809;-57
2021/04/26 10:18:40;;;;;;;3.73;3.30;;;;;;;;;;5072711;28;20412;-55
2021/04/26 10:21:18;;;;;;;3.37;2.93;;;;;;;;;;5073038;28;20404;-57
2021/04/26 10:23:45;;;;;;;4.03;3.37;;;;;;;;;;5073035;28;20459;-57
2021/04/26 10:26:30;;;;;;;3.90;3.50;;;;;;;;;;5073027;28;20404;-59
2021/04/26 10:29:15;;;;;;;3.13;2.90;;;;;;;;;;5072624;28;20921;-58
2021/04/26 10:31:58;;;;;;;5.23;2.93;;;;;;;;;;5072785;28;20550;-58
2021/04/26 10:34:25;;;;;;;2.60;2.40;;;;;;;;;;5072847;28;20828;-57
2021/04/26 10:36:54;;;;;;;4.00;2.80;;;;;;;;;;5072876;28;20951;-56
2021/04/26 10:39:21;;;;;;;4.93;3.10;;;;;;;;;;5072531;28;20438;-58
2021/04/26 10:41:47;;;;;;;3.13;3.00;;;;;;;;;;5072679;28;20400;-57
2021/04/26 10:44:16;;;;;;;3.87;2.70;;;;;;;;;;5072839;28;20467;-56
2021/04/26 10:46:42;;;;;;;3.10;2.90;;;;;;;;;;5072800;28;20400;-57
2021/04/26 10:49:08;;;;;;;3.80;3.37;;;;;;;;;;5072459;28;20424;-57
2021/04/26 10:51:35;;;;;;;6.20;4.00;;;;;;;;;;5072815;28;20768;-56
2021/04/26 10:54:01;;;;;;;3.10;2.90;;;;;;;;;;5072703;28;20777;-57
2021/04/26 10:56:28;;;;;;;5.90;3.40;;;;;;;;;;5072905;28;20397;-58
2021/04/26 10:59:13;;;;;;;6.57;3.60;;;;;;;;;;5070807;28;20557;-58
2021/04/26 11:01:48;;;;;;;3.73;3.17;;;;;;;;;;5067851;28;20408;-59
2021/04/26 11:04:14;;;;;;;3.10;2.80;;;;;;;;;;5072252;28;20547;-57
2021/04/26 11:06:41;;;;;;;3.10;2.80;;;;;;;;;;5072093;28;20484;-59
2021/04/26 11:09:10;;;;;;;3.37;2.90;;;;;;;;;;5053542;28;20435;-58
2021/04/26 11:11:55;;;;;;;2.80;2.60;;;;;;;;;;5072202;28;20439;-57
2021/04/26 11:14:22;;;;;;;2.90;2.70;;;;;;;;;;5072043;28;20415;-58
2021/04/26 11:16:52;;;;;;;2.80;2.60;;;;;;;;;;5072156;28;20458;-57
2021/04/26 11:19:18;;;;;;;4.00;3.53;;;;;;;;;;5069839;28;20446;-57
2021/04/26 11:21:45;;;;;;;3.20;2.83;;;;;;;;;;5071316;28;20425;-58
2021/04/26 11:24:20;;;;;;;6.13;3.60;;;;;;;;;;5071655;28;20528;-57
2021/04/26 11:27:06;;;;;;;3.50;2.87;;;;;;;;;;5071778;28;20396;-58
2021/04/26 11:29:32;;;;;;;5.53;3.00;;;;;;;;;;5051109;28;20423;-59
2021/04/26 11:31:58;;;;;;;3.60;3.30;;;;;;;;;;5065504;28;20488;-58
2021/04/26 11:34:24;;;;;;;3.40;3.10;;;;;;;;;;5070700;28;20415;-57
2021/04/26 11:37:10;;;;;;;4.53;2.87;;;;;;;;;;5070041;28;20486;-57
2021/04/26 11:39:37;;;;;;;4.87;3.43;;;;;;;;;;5068926;28;20491;-57
2021/04/26 11:42:04;;;;;;;3.30;3.10;;;;;;;;;;5070221;28;20429;-57
2021/04/26 11:44:31;;;;;;;3.77;3.30;;;;;;;;;;5069206;28;20525;-58
2021/04/26 11:47:03;;;;;;;5.77;3.20;;;;;;;;;;5069384;28;20491;-57
2021/04/26 11:49:29;;;;;;;3.60;3.30;;;;;;;;;;5071234;28;20419;-57
2021/04/26 11:51:55;;;;;;;4.10;3.20;;;;;;;;;;5071199;28;20947;-57
2021/04/26 11:54:23;;;;;;;3.00;2.80;;;;;;;;;;5070064;28;20423;-56
2021/04/26 11:57:03;;;;;;;6.20;3.70;;;;;;;;;;5070752;28;20911;-56
2021/04/26 11:59:29;;;;;;;3.13;2.93;;;;;;;;;;5070061;28;20459;-57
2021/04/26 12:01:55;;;;;;;5.03;3.20;;;;;;;;;;5071216;28;20405;-57
2021/04/26 12:04:38;;;;;;;4.77;3.07;;;;;;;;;;5070764;28;20458;-57
2021/04/26 12:07:09;;;;;;;4.50;2.83;;;;;;;;;;5069939;28;20919;-57
2021/04/26 12:09:36;;;;;;;3.30;3.10;;;;;;;;;;5069767;28;20911;-57
2021/04/26 12:12:03;;;;;;;3.57;3.10;;;;;;;;;;5070058;28;20471;-58
2021/04/26 12:14:29;;;;;;;4.37;3.63;;;;;;;;;;5069927;28;20453;-57
2021/04/26 12:17:14;;;;;;;4.77;3.60;;;;;;;;;;5069979;28;20396;-57
2021/04/26 12:19:40;;;;;;;8.50;3.47;;;;;;;;;;5069112;28;20765;-58
2021/04/26 12:22:06;;;;;;;8.70;3.40;;;;;;;;;;5070783;28;20970;-58
2021/04/26 12:24:33;;;;;;;3.40;3.10;;;;;;;;;;5070814;28;20948;-58
2021/04/26 12:26:59;;;;;;;4.07;2.93;;;;;;;;;;5070914;28;20401;-58
2021/04/26 12:29:26;;;;;;;4.17;3.60;;;;;;;;;;5070579;28;20454;-58
2021/04/26 12:32:08;;;;;;;6.00;3.00;;;;;;;;;;5070924;28;20446;-57
2021/04/26 12:34:45;;;;;;;3.67;3.33;;;;;;;;;;5070796;28;20414;-57
2021/04/26 12:37:11;;;;;;;6.73;3.37;;;;;;;;;;5070707;28;20396;-58
2021/04/26 12:39:37;;;;;;;4.13;3.60;;;;;;;;;;5070556;28;20938;-57
2021/04/26 12:42:17;;;;;;;4.40;4.00;;;;;;;;;;5070678;28;20444;-58
2021/04/26 12:44:43;;;;;;;6.93;3.30;;;;;;;;;;5070588;28;20833;-58
2021/04/26 12:47:20;;;;;;;3.63;3.33;;;;;;;;;;5070603;28;20400;-58
2021/04/26 12:49:46;;;;;;;3.90;3.50;;;;;;;;;;5070386;28;20400;-57
2021/04/26 12:52:13;;;;;;;4.60;3.50;;;;;;;;;;5070593;28;20396;-56
2021/04/26 12:54:58;;;;;;;4.90;3.50;;;;;;;;;;5070499;28;20393;-57
2021/04/26 12:57:24;;;;;;;4.33;3.87;;;;;;;;;;5070565;28;21040;-57
2021/04/26 12:59:50;;;;;;;4.50;4.10;;;;;;;;;;5070210;28;20416;-57
2021/04/26 13:02:20;;;;;;;4.70;4.30;;;;;;;;;;5070518;28;20399;-57
2021/04/26 13:04:46;;;;;;;4.90;3.47;;;;;;;;;;5070296;28;20501;-57
2021/04/26 13:07:13;;;;;;;10.50;4.00;;;;;;;;;;5070349;28;20809;-56
2021/04/26 13:09:39;;;;;;;4.80;3.23;;;;;;;;;;5070085;28;20406;-57
2021/04/26 13:12:05;;;;;;;3.90;3.20;;;;;;;;;;5070383;28;20446;-57
2021/04/26 13:14:34;;;;;;;5.60;3.80;;;;;;;;;;5070071;28;20452;-58
2021/04/26 13:17:02;;;;;;;4.83;3.47;;;;;;;;;;5070335;28;20486;-57
2021/04/26 13:19:29;;;;;;;4.63;3.70;;;;;;;;;;5070078;28;20400;-57
2021/04/26 13:21:55;;;;;;;11.50;3.60;;;;;;;;;;5070781;28;20400;-57
2021/04/26 13:24:22;;;;;;;3.63;3.33;;;;;;;;;;5070673;28;20448;-57
2021/04/26 13:27:04;;;;;;;3.53;3.33;;;;;;;;;;5070488;28;20400;-57
2021/04/26 13:29:31;;;;;;;3.60;3.40;;;;;;;;;;5070027;28;20392;-58
2021/04/26 13:31:59;;;;;;;4.33;3.53;;;;;;;;;;5071854;28;20407;-58
2021/04/26 13:34:25;;;;;;;4.30;3.90;;;;;;;;;;5073993;28;20407;-58
2021/04/26 13:36:52;;;;;;;8.37;3.37;;;;;;;;;;5073858;28;20408;-57
2021/04/26 13:39:18;;;;;;;4.40;4.10;;;;;;;;;;5073426;28;20444;-58
2021/04/26 13:41:45;;;;;;;5.40;3.77;;;;;;;;;;5073829;28;20408;-58
2021/04/26 13:44:11;;;;;;;6.93;3.73;;;;;;;;;;5073765;28;20505;-56
2021/04/26 13:46:37;;;;;;;4.13;3.83;;;;;;;;;;5073707;28;20892;-57
2021/04/26 13:49:03;;;;;;;3.97;3.53;;;;;;;;;;5073314;28;20424;-57
2021/04/26 13:51:29;;;;;;;4.00;3.17;;;;;;;;;;5073646;28;20396;-58
2021/04/26 13:53:55;;;;;;;5.33;3.97;;;;;;;;;;5073687;28;20764;-57
2021/04/26 13:56:21;;;;;;;7.07;3.77;;;;;;;;;;5072674;28;20860;-57
2021/04/26 13:58:47;;;;;;;4.87;4.23;;;;;;;;;;5072538;28;20436;-57
2021/04/26 14:01:14;;;;;;;3.53;3.23;;;;;;;;;;5073133;28;20423;-56
2021/04/26 14:03:40;;;;;;;8.77;3.90;;;;;;;;;;5072947;28;20448;-57
2021/04/26 14:06:06;;;;;;;4.47;4.07;;;;;;;;;;5071665;28;20420;-58
2021/04/26 14:08:32;;;;;;;3.70;3.43;;;;;;;;;;5073259;28;20443;-58
2021/04/26 14:10:58;;;;;;;3.77;3.47;;;;;;;;;;5073072;28;20403;-58
2021/04/26 14:13:25;;;;;;;7.63;4.23;;;;;;;;;;5073254;28;20396;-57
2021/04/26 14:15:51;;;;;;;5.47;3.80;;;;;;;;;;5073253;28;20444;-57
2021/04/26 14:18:17;;;;;;;5.53;3.60;;;;;;;;;;5072746;28;20452;-58
2021/04/26 14:20:43;;;;;;;4.70;3.87;;;;;;;;;;5071884;28;20403;-57
2021/04/26 14:23:11;;;;;;;5.53;4.00;;;;;;;;;;5071863;28;20787;-58
2021/04/26 14:25:38;;;;;;;4.40;4.00;;;;;;;;;;5071976;28;20400;-57
2021/04/26 14:28:04;;;;;;;4.37;4.07;;;;;;;;;;5070530;28;20900;-57
2021/04/26 14:30:30;;;;;;;4.53;4.13;;;;;;;;;;5071414;28;20412;-57
2021/04/26 14:32:56;;;;;;;5.03;4.57;;;;;;;;;;5071490;28;20396;-56
2021/04/26 14:35:22;;;;;;;4.50;4.10;;;;;;;;;;5054649;28;20457;-58
2021/04/26 14:37:48;;;;;;;5.63;4.53;;;;;;;;;;5072736;28;20502;-58